createdAt,value
2019-02-23T00:02:38.524Z,17.70
2019-02-23T00:05:30.491Z,17.80
2019-02-23T00:08:18.999Z,17.80
2019-02-23T00:11:10.261Z,17.80
2019-02-23T00:13:59.942Z,17.80
2019-02-23T00:16:49.346Z,17.80
2019-02-23T00:19:38.858Z,17.80
2019-02-23T00:22:27.155Z,17.80
2019-02-23T00:25:16.967Z,17.70
2019-02-23T00:28:05.399Z,17.70
2019-02-23T00:30:55.542Z,17.70
2019-02-23T00:33:43.779Z,17.60
2019-02-23T00:36:32.384Z,17.60
2019-02-23T00:39:20.866Z,17.60
2019-02-23T00:42:09.444Z,17.60
2019-02-23T00:44:57.844Z,17.50
2019-02-23T00:47:46.320Z,17.50
2019-02-23T00:50:34.694Z,17.50
2019-02-23T00:53:24.582Z,17.40
2019-02-23T00:56:12.778Z,17.40
2019-02-23T00:59:01.070Z,17.40
2019-02-23T01:01:53.859Z,17.30
2019-02-23T01:04:42.143Z,17.30
2019-02-23T01:07:30.454Z,17.30
2019-02-23T01:10:19.663Z,17.20
2019-02-23T01:13:07.899Z,17.20
2019-02-23T01:15:58.410Z,17.20
2019-02-23T01:18:46.418Z,17.20
2019-02-23T01:21:35.207Z,17.20
2019-02-23T01:24:23.578Z,17.20
2019-02-23T01:27:11.886Z,17.20
2019-02-23T01:30:00.438Z,17.20
2019-02-23T01:32:48.809Z,17.20
2019-02-23T01:35:38.237Z,17.20
2019-02-23T01:38:26.807Z,17.20
2019-02-23T01:41:15.218Z,17.30
2019-02-23T01:44:05.607Z,17.30
2019-02-23T01:46:53.974Z,17.30
2019-02-23T01:49:43.315Z,17.40
2019-02-23T01:52:32.433Z,17.40
2019-02-23T01:55:18.029Z,17.40
2019-02-23T01:58:06.127Z,17.40
2019-02-23T02:00:54.139Z,17.40
2019-02-23T02:03:42.547Z,17.40
2019-02-23T02:06:33.586Z,17.40
2019-02-23T02:09:22.946Z,17.40
2019-02-23T02:12:12.385Z,17.40
2019-02-23T02:15:00.923Z,17.30
2019-02-23T02:17:49.062Z,17.30
2019-02-23T02:20:37.469Z,17.30
2019-02-23T02:23:25.459Z,17.30
2019-02-23T02:26:14.026Z,17.20
2019-02-23T02:29:02.462Z,17.20
2019-02-23T02:31:50.608Z,17.20
2019-02-23T02:34:39.082Z,17.10
2019-02-23T02:37:27.371Z,17.10
2019-02-23T02:40:15.591Z,17.10
2019-02-23T02:43:03.560Z,17.00
2019-02-23T02:45:51.647Z,17.00
2019-02-23T02:48:39.837Z,17.10
2019-02-23T02:51:27.977Z,17.10
2019-02-23T02:54:16.051Z,17.10
2019-02-23T02:57:04.251Z,17.10
2019-02-23T02:59:52.363Z,17.00
2019-02-23T03:02:41.045Z,17.00
2019-02-23T03:05:29.426Z,17.00
2019-02-23T03:08:17.576Z,17.00
2019-02-23T03:11:05.863Z,17.00
2019-02-23T03:13:54.168Z,17.00
2019-02-23T03:16:42.516Z,17.00
2019-02-23T03:19:30.723Z,17.00
2019-02-23T03:22:18.820Z,17.00
2019-02-23T03:25:07.737Z,17.00
2019-02-23T03:27:56.203Z,17.00
2019-02-23T03:30:44.264Z,17.00
2019-02-23T03:33:32.377Z,17.10
2019-02-23T03:36:20.802Z,17.10
2019-02-23T03:39:09.413Z,17.10
2019-02-23T03:41:57.734Z,17.10
2019-02-23T03:44:45.858Z,17.10
2019-02-23T03:47:33.963Z,17.10
2019-02-23T03:50:22.527Z,17.10
2019-02-23T03:53:10.850Z,17.10
2019-02-23T03:55:59.322Z,17.10
2019-02-23T03:58:47.446Z,17.10
2019-02-23T04:01:35.654Z,17.10
2019-02-23T04:04:24.058Z,17.10
2019-02-23T04:07:12.071Z,17.00
2019-02-23T04:10:00.633Z,17.00
2019-02-23T04:12:49.084Z,17.00
2019-02-23T04:15:37.241Z,16.90
2019-02-23T04:18:25.358Z,16.90
2019-02-23T04:21:13.474Z,16.90
2019-02-23T04:24:01.558Z,16.80
2019-02-23T04:26:49.613Z,16.80
2019-02-23T04:29:37.736Z,16.80
2019-02-23T04:32:25.734Z,16.70
2019-02-23T04:35:13.760Z,16.70
2019-02-23T04:38:02.196Z,16.80
2019-02-23T04:40:50.740Z,16.70
2019-02-23T04:43:38.849Z,16.80
2019-02-23T04:46:28.518Z,16.80
2019-02-23T04:49:17.018Z,16.90
2019-02-23T04:52:05.346Z,16.90
2019-02-23T04:54:53.541Z,17.00
2019-02-23T04:57:41.658Z,17.00
2019-02-23T05:00:30.005Z,17.10
2019-02-23T05:03:18.026Z,17.10
2019-02-23T05:06:06.546Z,17.10
2019-02-23T05:08:55.175Z,17.10
2019-02-23T05:11:43.428Z,17.10
2019-02-23T05:14:31.360Z,17.10
2019-02-23T05:17:19.597Z,17.10
2019-02-23T05:20:08.292Z,17.10
2019-02-23T05:22:58.796Z,17.10
2019-02-23T05:25:49.655Z,17.10
2019-02-23T05:28:38.191Z,17.00
2019-02-23T05:31:26.250Z,17.00
2019-02-23T05:34:14.758Z,17.00
2019-02-23T05:37:02.807Z,17.00
2019-02-23T05:39:50.786Z,16.90
2019-02-23T05:42:39.026Z,16.90
2019-02-23T05:45:27.435Z,16.90
2019-02-23T05:48:17.663Z,16.80
2019-02-23T05:51:06.056Z,16.80
2019-02-23T05:53:54.381Z,16.80
2019-02-23T05:56:42.877Z,16.70
2019-02-23T05:59:31.053Z,16.70
2019-02-23T06:02:19.146Z,16.70
2019-02-23T06:05:07.918Z,16.70
2019-02-23T06:07:56.007Z,16.70
2019-02-23T06:10:44.832Z,16.70
2019-02-23T06:13:33.451Z,16.60
2019-02-23T06:16:21.874Z,16.60
2019-02-23T06:19:09.929Z,16.60
2019-02-23T06:21:58.511Z,16.60
2019-02-23T06:24:46.994Z,16.60
2019-02-23T06:27:35.528Z,16.60
2019-02-23T06:30:23.563Z,16.60
2019-02-23T06:33:11.800Z,16.70
2019-02-23T06:36:00.349Z,16.70
2019-02-23T06:38:48.764Z,16.70
2019-02-23T06:41:37.382Z,16.70
2019-02-23T06:44:25.790Z,16.70
2019-02-23T06:47:14.290Z,16.70
2019-02-23T06:50:03.003Z,16.80
2019-02-23T06:52:51.189Z,16.80
2019-02-23T06:55:39.522Z,16.80
2019-02-23T06:58:27.716Z,16.80
2019-02-23T07:01:16.052Z,16.90
2019-02-23T07:04:04.522Z,16.90
2019-02-23T07:06:53.095Z,16.90
2019-02-23T07:09:41.185Z,16.90
2019-02-23T07:12:29.697Z,16.90
2019-02-23T07:15:18.288Z,17.00
2019-02-23T07:18:08.147Z,17.00
2019-02-23T07:20:59.307Z,17.10
2019-02-23T07:23:48.882Z,17.10
2019-02-23T07:26:37.302Z,17.20
2019-02-23T07:29:25.642Z,17.30
2019-02-23T07:32:13.886Z,17.30
2019-02-23T07:35:03.834Z,17.40
2019-02-23T07:37:51.821Z,17.40
2019-02-23T07:40:40.173Z,17.50
2019-02-23T07:43:28.496Z,17.50
2019-02-23T07:46:16.859Z,17.60
2019-02-23T07:49:05.319Z,17.60
2019-02-23T07:51:53.785Z,17.80
2019-02-23T07:54:41.780Z,17.80
2019-02-23T07:57:30.067Z,17.90
2019-02-23T08:00:34.116Z,18.00
2019-02-23T08:03:22.459Z,18.10
2019-02-23T08:06:10.823Z,18.20
2019-02-23T08:08:59.176Z,18.30
2019-02-23T08:11:47.548Z,18.40
2019-02-23T08:14:35.938Z,18.40
2019-02-23T08:17:29.156Z,18.50
2019-02-23T08:20:17.367Z,18.60
2019-02-23T08:23:16.895Z,18.70
2019-02-23T08:26:02.811Z,18.80
2019-02-23T08:28:51.828Z,18.80
2019-02-23T08:31:40.331Z,18.80
2019-02-23T08:34:28.687Z,18.80
2019-02-23T08:37:17.008Z,18.80
2019-02-23T08:40:08.366Z,18.80
2019-02-23T08:42:56.439Z,18.80
2019-02-23T08:45:45.087Z,18.80
2019-02-23T08:48:33.633Z,19.00
2019-02-23T08:51:22.206Z,19.00
2019-02-23T08:54:10.125Z,19.00
2019-02-23T08:56:58.371Z,19.10
2019-02-23T08:59:46.650Z,19.20
2019-02-23T09:02:34.958Z,19.20
2019-02-23T09:05:23.480Z,19.30
2019-02-23T09:08:11.568Z,19.40
2019-02-23T09:10:59.437Z,19.40
2019-02-23T09:13:47.698Z,19.50
2019-02-23T09:16:36.317Z,19.50
2019-02-23T09:19:24.575Z,19.60
2019-02-23T09:22:13.003Z,19.60
2019-02-23T09:25:01.393Z,19.80
2019-02-23T09:27:50.721Z,19.80
2019-02-23T09:30:39.078Z,19.90
2019-02-23T09:33:27.262Z,20.00
2019-02-23T09:36:15.824Z,20.10
2019-02-23T09:39:04.620Z,20.20
2019-02-23T09:41:52.973Z,20.30
2019-02-23T09:44:41.432Z,20.30
2019-02-23T09:47:29.913Z,20.30
2019-02-23T09:50:18.154Z,20.30
2019-02-23T09:53:11.151Z,20.30
2019-02-23T09:55:56.102Z,20.30
2019-02-23T09:58:44.030Z,20.30
2019-02-23T10:01:32.274Z,20.30
2019-02-23T10:04:20.527Z,20.30
2019-02-23T10:07:08.802Z,20.30
2019-02-23T10:09:56.887Z,20.30
2019-02-23T10:12:45.206Z,20.30
2019-02-23T10:15:33.715Z,20.30
2019-02-23T10:18:22.705Z,20.30
2019-02-23T10:21:10.758Z,20.30
2019-02-23T10:23:59.196Z,20.30
2019-02-23T10:26:47.561Z,20.30
2019-02-23T10:29:35.773Z,20.30
2019-02-23T10:32:24.097Z,20.30
2019-02-23T10:35:13.630Z,20.30
2019-02-23T10:38:01.867Z,20.20
2019-02-23T10:40:49.885Z,20.20
2019-02-23T10:43:37.826Z,20.20
2019-02-23T10:46:26.259Z,20.20
2019-02-23T10:49:14.990Z,20.20
2019-02-23T10:52:02.936Z,20.20
2019-02-23T10:54:51.192Z,20.20
2019-02-23T10:57:39.864Z,20.20
2019-02-23T11:00:28.383Z,20.20
2019-02-23T11:06:02.142Z,20.20
2019-02-23T11:08:55.584Z,20.20
2019-02-23T11:11:43.952Z,20.20
2019-02-23T11:14:32.164Z,20.20
2019-02-23T11:17:20.451Z,20.20
2019-02-23T11:20:10.605Z,20.20
2019-02-23T11:22:58.861Z,20.20
2019-02-23T11:25:57.260Z,20.20
2019-02-23T11:28:56.945Z,20.20
2019-02-23T11:35:07.631Z,20.20
2019-02-23T11:37:56.151Z,20.20
2019-02-23T11:40:44.099Z,20.20
2019-02-23T11:43:32.172Z,20.20
2019-02-23T11:46:20.462Z,20.20
2019-02-23T11:49:08.704Z,20.20
2019-02-23T11:51:56.868Z,20.20
2019-02-23T11:54:45.284Z,20.20
2019-02-23T11:57:34.143Z,20.20
2019-02-23T12:00:22.547Z,20.20
2019-02-23T12:03:10.884Z,20.20
2019-02-23T12:05:59.291Z,20.30
2019-02-23T12:08:47.334Z,20.30
2019-02-23T12:11:35.694Z,20.20
2019-02-23T12:14:25.869Z,20.30
2019-02-23T12:17:14.216Z,20.30
2019-02-23T12:20:02.455Z,20.20
2019-02-23T12:22:50.590Z,20.20
2019-02-23T12:25:38.811Z,20.20
2019-02-23T12:28:27.381Z,20.20
2019-02-23T12:31:15.856Z,20.30
2019-02-23T12:34:03.890Z,20.30
2019-02-23T12:36:52.181Z,20.20
2019-02-23T12:39:40.129Z,20.30
2019-02-23T12:42:28.210Z,20.30
2019-02-23T12:45:16.627Z,20.30
2019-02-23T12:48:05.154Z,20.30
2019-02-23T12:50:53.660Z,20.30
2019-02-23T12:53:41.967Z,20.30
2019-02-23T12:56:30.230Z,20.30
2019-02-23T12:59:18.363Z,20.30
2019-02-23T13:01:48.989Z,20.30
2019-02-23T13:04:19.637Z,20.30
2019-02-23T13:06:50.259Z,20.30
2019-02-23T13:09:29.693Z,20.20
2019-02-23T13:12:21.223Z,20.30
2019-02-23T13:15:16.046Z,20.20
2019-02-23T13:18:21.363Z,20.20
2019-02-23T13:21:25.095Z,20.20
2019-02-23T13:24:13.891Z,20.20
2019-02-23T13:27:20.500Z,20.20
2019-02-23T13:30:12.361Z,20.20
2019-02-23T13:33:01.017Z,20.20
2019-02-23T13:35:52.574Z,20.20
2019-02-23T13:38:38.227Z,20.20
2019-02-23T13:41:12.067Z,20.20
2019-02-23T13:43:54.354Z,20.10
2019-02-23T13:46:30.659Z,20.10
2019-02-23T13:49:25.348Z,20.10
2019-02-23T13:52:07.701Z,20.10
2019-02-23T13:55:00.670Z,20.10
2019-02-23T13:57:55.318Z,20.10
2019-02-23T14:00:45.553Z,20.10
2019-02-23T14:03:52.028Z,20.10
2019-02-23T14:07:05.932Z,20.20
2019-02-23T14:10:13.703Z,20.30
2019-02-23T14:13:17.031Z,20.40
2019-02-23T14:16:23.407Z,20.40
2019-02-23T14:19:26.641Z,20.40
2019-02-23T14:22:17.888Z,20.40
2019-02-23T14:25:24.188Z,20.40
2019-02-23T14:28:17.997Z,20.40
2019-02-23T14:31:30.307Z,20.30
2019-02-23T14:34:41.949Z,20.30
2019-02-23T14:37:59.108Z,20.30
2019-02-23T14:41:23.675Z,20.30
2019-02-23T14:44:34.594Z,20.30
2019-02-23T14:47:47.844Z,20.20
2019-02-23T14:51:01.605Z,20.20
2019-02-23T14:53:59.168Z,20.20
2019-02-23T14:57:08.248Z,20.20
2019-02-23T15:00:19.316Z,20.10
2019-02-23T15:03:04.668Z,20.10
2019-02-23T15:06:15.244Z,20.10
2019-02-23T15:09:23.330Z,20.10
2019-02-23T15:12:33.191Z,20.10
2019-02-23T15:15:39.420Z,20.10
2019-02-23T15:18:45.759Z,20.10
2019-02-23T15:21:59.760Z,20.10
2019-02-23T15:24:56.843Z,20.10
2019-02-23T15:27:57.399Z,20.10
2019-02-23T15:30:51.651Z,20.10
2019-02-23T15:33:45.434Z,20.10
2019-02-23T15:36:37.008Z,20.20
2019-02-23T15:39:45.025Z,20.10
2019-02-23T15:42:41.878Z,20.10
2019-02-23T15:45:35.895Z,20.10
2019-02-23T15:48:29.834Z,20.10
2019-02-23T15:51:18.029Z,20.10
2019-02-23T15:54:06.712Z,20.10
2019-02-23T15:56:55.214Z,20.10
2019-02-23T15:59:44.468Z,20.00
2019-02-23T16:02:33.762Z,20.10
2019-02-23T16:05:22.032Z,20.10
2019-02-23T16:08:10.541Z,20.10
2019-02-23T16:10:58.856Z,20.10
2019-02-23T16:13:47.368Z,20.10
2019-02-23T16:16:35.780Z,20.10
2019-02-23T16:19:23.974Z,20.10
2019-02-23T16:22:12.188Z,20.00
2019-02-23T16:25:00.613Z,20.00
2019-02-23T16:27:49.079Z,20.00
2019-02-23T16:30:19.810Z,20.00
2019-02-23T16:33:07.761Z,20.00
2019-02-23T16:35:56.055Z,20.00
2019-02-23T16:38:44.083Z,20.00
2019-02-23T16:41:32.087Z,20.00
2019-02-23T16:44:20.511Z,20.00
2019-02-23T16:47:08.766Z,20.00
2019-02-23T16:49:57.341Z,20.00
2019-02-23T16:52:45.539Z,20.00
2019-02-23T16:55:33.599Z,20.00
2019-02-23T16:58:21.830Z,20.00
2019-02-23T17:01:10.346Z,20.10
2019-02-23T17:03:58.716Z,20.00
2019-02-23T17:06:46.773Z,20.00
2019-02-23T17:09:35.042Z,20.00
2019-02-23T17:12:24.083Z,20.00
2019-02-23T17:15:12.580Z,20.00
2019-02-23T17:18:01.014Z,20.00
2019-02-23T17:20:31.645Z,20.00
2019-02-23T17:23:02.350Z,19.90
2019-02-23T17:25:32.938Z,19.90
2019-02-23T17:28:06.843Z,19.90
2019-02-23T17:30:36.036Z,20.00
2019-02-23T17:33:06.764Z,20.00
2019-02-23T17:35:41.876Z,19.90
2019-02-23T17:38:16.888Z,19.90
2019-02-23T17:40:59.016Z,19.90
2019-02-23T17:43:32.713Z,19.90
2019-02-23T17:46:03.346Z,19.90
2019-02-23T17:48:33.994Z,19.90
2019-02-23T17:51:06.408Z,19.90
2019-02-23T17:53:37.113Z,19.90
2019-02-23T17:56:12.267Z,19.90
2019-02-23T17:58:40.119Z,19.90
2019-02-23T18:01:10.756Z,19.90
2019-02-23T18:03:41.389Z,19.90
2019-02-23T18:06:12.525Z,19.90
2019-02-23T18:08:43.219Z,20.00
2019-02-23T18:11:14.006Z,20.00
2019-02-23T18:13:45.834Z,20.00
2019-02-23T18:16:16.652Z,19.90
2019-02-23T18:18:47.284Z,19.90
2019-02-23T18:21:17.963Z,19.90
2019-02-23T18:23:48.889Z,19.90
2019-02-23T18:26:21.175Z,19.90
2019-02-23T18:28:51.884Z,19.90
2019-02-23T18:31:22.595Z,19.80
2019-02-23T18:33:53.379Z,19.80
2019-02-23T18:36:24.097Z,19.70
2019-02-23T18:38:54.714Z,19.70
2019-02-23T18:41:25.416Z,19.70
2019-02-23T18:43:56.058Z,19.70
2019-02-23T18:46:26.872Z,19.60
2019-02-23T18:48:57.501Z,19.60
2019-02-23T18:51:28.158Z,19.60
2019-02-23T18:54:02.915Z,19.50
2019-02-23T18:56:33.673Z,19.50
2019-02-23T18:59:04.291Z,19.50
2019-02-23T19:01:34.999Z,19.40
2019-02-23T19:04:05.810Z,19.40
2019-02-23T19:06:36.534Z,19.40
2019-02-23T19:09:07.340Z,19.30
2019-02-23T19:11:38.071Z,19.30
2019-02-23T19:14:08.699Z,19.30
2019-02-23T19:16:39.441Z,19.20
2019-02-23T19:19:10.035Z,19.30
2019-02-23T19:21:40.696Z,19.30
2019-02-23T19:24:11.344Z,19.30
2019-02-23T19:26:42.012Z,19.30
2019-02-23T19:29:12.728Z,19.30
2019-02-23T19:31:43.443Z,19.30
2019-02-23T19:34:14.176Z,19.30
2019-02-23T19:36:44.966Z,19.20
2019-02-23T19:39:16.262Z,19.20
2019-02-23T19:41:47.066Z,19.30
2019-02-23T19:44:17.702Z,19.30
2019-02-23T19:46:50.844Z,19.30
2019-02-23T19:49:21.554Z,19.30
2019-02-23T19:51:52.301Z,19.20
2019-02-23T19:54:23.030Z,19.20
2019-02-23T19:56:53.652Z,19.20
2019-02-23T19:59:24.379Z,19.20
2019-02-23T20:01:55.022Z,19.10
2019-02-23T20:04:25.690Z,19.10
2019-02-23T20:06:56.382Z,19.10
2019-02-23T20:09:27.112Z,19.10
2019-02-23T20:11:57.766Z,19.00
2019-02-23T20:14:28.416Z,19.00
2019-02-23T20:16:59.208Z,19.00
2019-02-23T20:19:29.883Z,19.00
2019-02-23T20:22:00.583Z,19.00
2019-02-23T20:24:31.363Z,19.00
2019-02-23T20:27:02.056Z,19.00
2019-02-23T20:29:32.715Z,19.00
2019-02-23T20:32:03.400Z,19.00
2019-02-23T20:34:34.196Z,19.00
2019-02-23T20:37:05.021Z,19.00
2019-02-23T20:39:35.753Z,19.00
2019-02-23T20:42:06.393Z,19.00
2019-02-23T20:44:37.096Z,19.00
2019-02-23T20:47:07.898Z,19.00
2019-02-23T20:49:38.817Z,19.00
2019-02-23T20:52:09.504Z,19.00
2019-02-23T20:54:40.490Z,18.90
2019-02-23T20:57:13.970Z,18.90
2019-02-23T20:59:43.532Z,18.90
2019-02-23T21:02:14.445Z,18.90
2019-02-23T21:04:45.317Z,18.90
2019-02-23T21:07:16.269Z,18.90
2019-02-23T21:09:47.063Z,18.80
2019-02-23T21:12:17.919Z,18.80
2019-02-23T21:14:48.797Z,18.80
2019-02-23T21:17:19.595Z,18.80
2019-02-23T21:19:50.465Z,18.80
2019-02-23T21:22:21.533Z,18.70
2019-02-23T21:24:52.433Z,18.70
2019-02-23T21:27:23.200Z,18.70
2019-02-23T21:29:53.867Z,18.70
2019-02-23T21:32:24.580Z,18.60
2019-02-23T21:34:55.466Z,18.60
2019-02-23T21:37:26.254Z,18.60
2019-02-23T21:39:57.164Z,18.60
2019-02-23T21:42:28.019Z,18.50
2019-02-23T21:44:58.774Z,18.50
2019-02-23T21:47:29.466Z,18.50
2019-02-23T21:50:00.268Z,18.50
2019-02-23T21:52:31.075Z,18.40
2019-02-23T21:55:01.696Z,18.40
2019-02-23T21:57:32.602Z,18.40
2019-02-23T22:00:04.052Z,18.30
2019-02-23T22:02:34.778Z,18.30
2019-02-23T22:05:12.301Z,18.30
2019-02-23T22:07:38.615Z,18.30
2019-02-23T22:10:10.396Z,18.30
2019-02-23T22:12:41.400Z,18.20
2019-02-23T22:15:12.241Z,18.20
2019-02-23T22:17:42.955Z,18.20
2019-02-23T22:20:13.604Z,18.20
2019-02-23T22:22:44.343Z,18.10
2019-02-23T22:25:15.006Z,18.10
2019-02-23T22:27:45.636Z,18.00
2019-02-23T22:30:16.386Z,18.00
2019-02-23T22:32:47.237Z,17.90
2019-02-23T22:35:17.948Z,17.90
2019-02-23T22:37:48.548Z,17.90
2019-02-23T22:40:19.202Z,17.90
2019-02-23T22:42:49.813Z,17.80
2019-02-23T22:45:20.507Z,17.80
2019-02-23T22:47:51.095Z,17.70
2019-02-23T22:50:21.760Z,17.70
2019-02-23T22:52:52.346Z,17.70
2019-02-23T22:55:22.971Z,17.60
2019-02-23T22:57:53.609Z,17.60
2019-02-23T23:00:28.962Z,17.60
2019-02-23T23:02:59.914Z,17.50
2019-02-23T23:05:30.592Z,17.50
2019-02-23T23:08:01.223Z,17.50
2019-02-23T23:10:31.870Z,17.40
2019-02-23T23:13:02.480Z,17.40
2019-02-23T23:15:33.058Z,17.40
2019-02-23T23:18:03.742Z,17.30
2019-02-23T23:20:34.363Z,17.30
2019-02-23T23:23:05.001Z,17.20
2019-02-23T23:25:35.629Z,17.20
2019-02-23T23:28:06.267Z,17.20
2019-02-23T23:30:37.021Z,17.10
2019-02-23T23:33:07.733Z,17.10
2019-02-23T23:35:38.404Z,17.00
2019-02-23T23:38:09.191Z,17.00
2019-02-23T23:40:39.882Z,17.00
2019-02-23T23:43:10.585Z,16.90
2019-02-23T23:45:41.271Z,16.90
2019-02-23T23:48:11.910Z,16.90
2019-02-23T23:50:42.540Z,16.80
2019-02-23T23:53:13.256Z,16.80
2019-02-23T23:55:43.870Z,16.80
2019-02-23T23:58:14.500Z,16.70
